createdAt,value
2022-12-31T00:00:15.367Z,98118.16
2022-12-31T00:02:42.184Z,98124.53
2022-12-31T00:05:09.584Z,98133.97
2022-12-31T00:10:04.543Z,98142.84
2022-12-31T00:12:31.293Z,98149.16
2022-12-31T00:14:57.886Z,98129.78
2022-12-31T00:17:24.533Z,98129.09
2022-12-31T00:19:51.173Z,98120.25
2022-12-31T00:22:17.826Z,98125.56
2022-12-31T00:24:44.476Z,98122.28
2022-12-31T00:27:11.104Z,98119.28
2022-12-31T00:29:37.672Z,98120.03
2022-12-31T00:32:04.591Z,98123.81
2022-12-31T00:34:31.166Z,98127.53
2022-12-31T00:36:57.727Z,98131.47
2022-12-31T00:39:24.459Z,98129.03
2022-12-31T00:41:51.038Z,98133.44
2022-12-31T00:44:17.741Z,98133.69
2022-12-31T00:49:11.049Z,98123.59
2022-12-31T00:51:37.660Z,98119.22
2022-12-31T00:54:04.680Z,98129.50
2022-12-31T00:56:32.412Z,98121.81
2022-12-31T00:59:00.092Z,98120.72
2022-12-31T01:01:34.293Z,98126.53
2022-12-31T01:04:13.640Z,98137.38
2022-12-31T01:06:41.637Z,98137.41
2022-12-31T01:09:10.251Z,98139.25
2022-12-31T01:11:37.299Z,98146.94
2022-12-31T01:14:14.338Z,98145.09
2022-12-31T01:16:50.877Z,98131.84
2022-12-31T01:19:27.950Z,98140.59
2022-12-31T01:21:56.168Z,98153.09
2022-12-31T01:24:23.264Z,98156.22
2022-12-31T01:26:51.219Z,98162.03
2022-12-31T01:29:18.211Z,98132.22
2022-12-31T01:31:44.945Z,98141.13
2022-12-31T01:34:11.718Z,98140.38
2022-12-31T01:36:38.939Z,98143.09
2022-12-31T01:39:08.067Z,98157.72
2022-12-31T01:41:40.423Z,98144.84
2022-12-31T01:44:13.071Z,98153.50
2022-12-31T01:46:48.350Z,98149.28
2022-12-31T01:49:32.849Z,98139.63
2022-12-31T01:52:09.163Z,98144.72
2022-12-31T01:54:46.035Z,98141.31
2022-12-31T01:57:13.691Z,98148.53
2022-12-31T01:59:41.847Z,98157.69
2022-12-31T02:02:08.843Z,98153.72
2022-12-31T02:04:36.978Z,98161.50
2022-12-31T02:07:07.022Z,98152.38
2022-12-31T02:09:36.372Z,98152.25
2022-12-31T02:12:02.953Z,98137.91
2022-12-31T02:14:47.755Z,98140.13
2022-12-31T02:17:28.341Z,98149.88
2022-12-31T02:20:39.014Z,98135.63
2022-12-31T02:23:28.302Z,98138.25
2022-12-31T02:26:32.239Z,98122.75
2022-12-31T02:29:20.051Z,98121.56
2022-12-31T02:32:00.701Z,98130.69
2022-12-31T02:34:52.576Z,98125.97
2022-12-31T02:37:23.064Z,98135.19
2022-12-31T02:39:51.201Z,98124.50
2022-12-31T02:42:17.891Z,98128.81
2022-12-31T02:44:44.538Z,98129.34
2022-12-31T02:47:36.081Z,98140.59
2022-12-31T02:50:27.392Z,98133.69
2022-12-31T02:53:17.957Z,98121.06
2022-12-31T02:55:50.391Z,98138.44
2022-12-31T02:58:49.975Z,98138.09
2022-12-31T03:01:43.557Z,98153.84
2022-12-31T03:04:33.996Z,98148.91
2022-12-31T03:07:13.939Z,98139.19
2022-12-31T03:09:40.583Z,98143.53
2022-12-31T03:12:28.740Z,98134.84
2022-12-31T03:14:58.598Z,98140.03
2022-12-31T03:17:25.977Z,98144.00
2022-12-31T03:20:11.122Z,98137.63
2022-12-31T03:22:42.057Z,98156.59
2022-12-31T03:25:33.683Z,98159.41
2022-12-31T03:28:10.851Z,98177.06
2022-12-31T03:30:40.648Z,98181.13
2022-12-31T03:33:08.431Z,98181.13
2022-12-31T03:35:37.967Z,98192.88
2022-12-31T03:38:05.761Z,98188.88
2022-12-31T03:40:38.218Z,98195.72
2022-12-31T03:43:04.857Z,98192.38
2022-12-31T03:45:31.509Z,98202.50
2022-12-31T03:47:58.822Z,98194.19
2022-12-31T03:50:25.499Z,98209.88
2022-12-31T03:52:52.328Z,98211.56
2022-12-31T03:55:19.218Z,98207.44
2022-12-31T03:57:46.256Z,98210.13
2022-12-31T04:00:18.385Z,98206.50
2022-12-31T04:02:48.215Z,98212.59
2022-12-31T04:05:15.807Z,98222.59
2022-12-31T04:07:42.821Z,98218.78
2022-12-31T04:10:12.379Z,98208.91
2022-12-31T04:12:39.460Z,98226.97
2022-12-31T04:15:08.212Z,98234.34
2022-12-31T04:17:34.964Z,98226.53
2022-12-31T04:20:02.103Z,98229.78
2022-12-31T04:22:28.696Z,98213.28
2022-12-31T04:24:55.322Z,98216.13
2022-12-31T04:27:21.909Z,98206.03
2022-12-31T04:29:48.533Z,98212.63
2022-12-31T04:32:16.269Z,98206.63
2022-12-31T04:34:42.892Z,98210.09
2022-12-31T04:37:09.528Z,98209.72
2022-12-31T04:39:36.180Z,98214.94
2022-12-31T04:42:04.270Z,98213.75
2022-12-31T04:44:31.574Z,98220.59
2022-12-31T04:46:58.229Z,98212.75
2022-12-31T04:49:24.840Z,98225.13
2022-12-31T04:51:52.473Z,98226.72
2022-12-31T04:54:19.092Z,98223.63
2022-12-31T04:56:45.690Z,98220.66
2022-12-31T04:59:12.875Z,98221.72
2022-12-31T05:01:39.727Z,98230.69
2022-12-31T05:04:06.613Z,98230.44
2022-12-31T05:06:33.421Z,98221.72
2022-12-31T05:09:00.125Z,98209.09
2022-12-31T05:11:26.752Z,98208.44
2022-12-31T05:13:53.353Z,98225.06
2022-12-31T05:16:22.710Z,98235.88
2022-12-31T05:18:49.321Z,98213.34
2022-12-31T05:21:20.977Z,98213.84
2022-12-31T05:23:49.112Z,98221.88
2022-12-31T05:26:15.851Z,98224.50
2022-12-31T05:28:43.336Z,98228.00
2022-12-31T05:31:10.133Z,98235.97
2022-12-31T05:33:36.876Z,98223.75
2022-12-31T05:36:04.086Z,98223.63
2022-12-31T05:38:30.819Z,98237.88
2022-12-31T05:41:07.075Z,98235.97
2022-12-31T05:43:34.499Z,98239.38
2022-12-31T05:46:05.133Z,98253.69
2022-12-31T05:48:32.042Z,98264.00
2022-12-31T05:50:58.782Z,98251.97
2022-12-31T05:53:25.446Z,98255.59
2022-12-31T05:55:52.055Z,98255.34
2022-12-31T05:58:21.074Z,98251.50
2022-12-31T06:00:47.714Z,98250.03
2022-12-31T06:03:14.382Z,98277.91
2022-12-31T06:05:42.592Z,98266.44
2022-12-31T06:08:10.876Z,98273.88
2022-12-31T06:10:37.655Z,98281.28
2022-12-31T06:13:04.444Z,98263.72
2022-12-31T06:15:31.259Z,98284.50
2022-12-31T06:17:58.092Z,98276.84
2022-12-31T06:20:24.758Z,98269.09
2022-12-31T06:22:51.366Z,98286.69
2022-12-31T06:25:17.958Z,98287.28
2022-12-31T06:27:44.574Z,98284.66
2022-12-31T06:30:12.111Z,98288.13
2022-12-31T06:32:40.540Z,98303.09
2022-12-31T06:35:08.030Z,98307.66
2022-12-31T06:37:34.679Z,98296.47
2022-12-31T06:40:01.405Z,98288.63
2022-12-31T06:42:30.748Z,98293.97
2022-12-31T06:44:58.851Z,98286.03
2022-12-31T06:47:26.027Z,98291.53
2022-12-31T06:49:53.047Z,98292.75
2022-12-31T06:52:20.114Z,98301.16
2022-12-31T06:54:47.808Z,98303.88
2022-12-31T06:57:15.160Z,98309.03
2022-12-31T06:59:42.228Z,98306.44
2022-12-31T07:02:49.850Z,98310.56
2022-12-31T07:05:44.642Z,98309.94
2022-12-31T07:09:01.616Z,98311.44
2022-12-31T07:11:37.167Z,98312.91
2022-12-31T07:14:09.602Z,98322.13
2022-12-31T07:17:21.815Z,98335.19
2022-12-31T07:20:14.880Z,98333.41
2022-12-31T07:22:41.838Z,98331.91
2022-12-31T07:25:15.120Z,98339.56
2022-12-31T07:28:03.272Z,98340.88
2022-12-31T07:30:50.567Z,98348.69
2022-12-31T07:33:49.997Z,98346.00
2022-12-31T07:36:45.624Z,98349.19
2022-12-31T07:39:47.783Z,98347.75
2022-12-31T07:42:23.435Z,98359.59
2022-12-31T07:45:18.657Z,98357.19
2022-12-31T07:47:45.705Z,98363.16
2022-12-31T07:50:18.464Z,98374.84
2022-12-31T07:52:46.703Z,98377.06
2022-12-31T07:55:13.476Z,98365.25
2022-12-31T07:58:04.654Z,98385.69
2022-12-31T08:00:31.533Z,98377.72
2022-12-31T08:03:27.605Z,98398.06
2022-12-31T08:06:32.562Z,98387.25
2022-12-31T08:09:20.024Z,98390.34
2022-12-31T08:11:57.540Z,98397.78
2022-12-31T08:14:25.618Z,98401.66
2022-12-31T08:16:54.252Z,98408.34
2022-12-31T08:19:24.744Z,98411.53
2022-12-31T08:22:21.736Z,98418.66
2022-12-31T08:25:14.143Z,98425.72
2022-12-31T08:28:18.247Z,98427.72
2022-12-31T08:31:17.437Z,98430.28
2022-12-31T08:34:30.590Z,98424.78
2022-12-31T08:37:08.106Z,98426.78
2022-12-31T08:39:43.646Z,98416.56
2022-12-31T08:42:42.580Z,98417.81
2022-12-31T08:45:20.181Z,98420.44
2022-12-31T08:48:05.477Z,98409.56
2022-12-31T08:50:32.522Z,98417.09
2022-12-31T08:52:59.827Z,98428.41
2022-12-31T08:55:26.879Z,98421.44
2022-12-31T08:58:02.705Z,98423.19
2022-12-31T09:00:30.452Z,98419.31
2022-12-31T09:03:21.667Z,98418.06
2022-12-31T09:06:19.063Z,98437.19
2022-12-31T09:09:12.022Z,98443.41
2022-12-31T09:12:06.026Z,98454.34
2022-12-31T09:14:50.193Z,98455.53
2022-12-31T09:17:46.910Z,98448.09
2022-12-31T09:20:42.786Z,98463.25
2022-12-31T09:23:12.063Z,98476.41
2022-12-31T09:26:03.895Z,98469.66
2022-12-31T09:29:03.457Z,98473.72
2022-12-31T09:31:45.647Z,98469.78
2022-12-31T09:34:49.000Z,98477.91
2022-12-31T09:37:24.865Z,98475.66
2022-12-31T09:39:52.983Z,98476.53
2022-12-31T09:43:00.021Z,98480.63
2022-12-31T09:46:16.522Z,98475.03
2022-12-31T09:49:23.732Z,98475.78
2022-12-31T09:52:00.743Z,98457.94
2022-12-31T09:54:59.265Z,98462.69
2022-12-31T09:58:09.939Z,98470.88
2022-12-31T10:01:13.130Z,98468.81
2022-12-31T10:04:05.758Z,98490.06
2022-12-31T10:07:00.123Z,98478.56
2022-12-31T10:09:59.187Z,98489.66
2022-12-31T10:13:06.723Z,98508.25
2022-12-31T10:16:01.303Z,98492.69
2022-12-31T10:18:58.058Z,98497.66
2022-12-31T10:21:55.503Z,98504.28
2022-12-31T10:25:03.622Z,98496.81
2022-12-31T10:28:01.048Z,98492.81
2022-12-31T10:30:34.679Z,98484.97
2022-12-31T10:33:24.572Z,98504.59
2022-12-31T10:36:01.064Z,98522.88
2022-12-31T10:38:42.731Z,98508.00
2022-12-31T10:41:52.459Z,98499.50
2022-12-31T10:44:27.186Z,98501.22
2022-12-31T10:47:43.868Z,98491.47
2022-12-31T10:50:42.324Z,98484.81
2022-12-31T10:53:38.866Z,98500.31
2022-12-31T10:56:56.842Z,98494.97
2022-12-31T11:00:09.331Z,98523.88
2022-12-31T11:03:30.138Z,98520.41
2022-12-31T11:06:26.684Z,98515.88
2022-12-31T11:09:41.160Z,98536.13
2022-12-31T11:12:41.413Z,98524.72
2022-12-31T11:15:22.486Z,98518.03
2022-12-31T11:18:30.094Z,98507.66
2022-12-31T11:21:28.447Z,98513.50
2022-12-31T11:24:09.982Z,98513.38
2022-12-31T11:26:57.217Z,98516.03
2022-12-31T11:29:49.607Z,98515.41
2022-12-31T11:32:45.470Z,98511.34
2022-12-31T11:35:39.811Z,98520.69
2022-12-31T11:38:31.906Z,98520.34
2022-12-31T11:41:39.736Z,98508.84
2022-12-31T11:44:33.737Z,98508.97
2022-12-31T11:47:33.740Z,98500.78
2022-12-31T11:50:42.935Z,98502.78
2022-12-31T11:53:53.307Z,98505.34
2022-12-31T11:56:33.694Z,98506.69
2022-12-31T11:59:04.867Z,98513.94
2022-12-31T12:01:47.900Z,98513.41
2022-12-31T12:04:14.490Z,98506.94
2022-12-31T12:06:41.181Z,98496.25
2022-12-31T12:09:17.125Z,98500.69
2022-12-31T12:11:43.825Z,98507.34
2022-12-31T12:14:41.508Z,98499.84
2022-12-31T12:17:20.003Z,98495.72
2022-12-31T12:19:54.430Z,98488.50
2022-12-31T12:22:25.001Z,98486.28
2022-12-31T12:24:57.337Z,98490.00
2022-12-31T12:27:29.741Z,98498.59
2022-12-31T12:29:56.347Z,98493.38
2022-12-31T12:32:27.106Z,98497.84
2022-12-31T12:34:54.011Z,98500.31
2022-12-31T12:37:34.324Z,98499.22
2022-12-31T12:40:22.136Z,98493.81
2022-12-31T12:42:52.488Z,98492.53
2022-12-31T12:45:29.935Z,98484.22
2022-12-31T12:48:01.536Z,98473.00
2022-12-31T12:50:47.180Z,98477.28
2022-12-31T12:53:49.175Z,98479.59
2022-12-31T12:56:55.460Z,98470.84
2022-12-31T13:00:16.784Z,98469.56
2022-12-31T13:03:36.853Z,98485.63
2022-12-31T13:06:28.397Z,98494.69
2022-12-31T13:09:35.186Z,98492.41
2022-12-31T13:12:18.568Z,98494.81
2022-12-31T13:15:00.949Z,98490.56
2022-12-31T13:17:33.429Z,98480.78
2022-12-31T13:20:13.968Z,98473.03
2022-12-31T13:22:58.603Z,98482.31
2022-12-31T13:25:56.057Z,98481.00
2022-12-31T13:28:24.668Z,98481.00
2022-12-31T13:31:03.275Z,98482.97
2022-12-31T13:33:41.619Z,98484.06
2022-12-31T13:36:15.091Z,98490.28
2022-12-31T13:39:07.263Z,98488.88
2022-12-31T13:41:48.560Z,98482.22
2022-12-31T13:44:36.359Z,98484.09
2022-12-31T13:47:41.199Z,98477.69
2022-12-31T13:50:30.879Z,98477.59
2022-12-31T13:53:18.363Z,98489.69
2022-12-31T13:55:56.671Z,98488.41
2022-12-31T13:58:44.698Z,98506.03
2022-12-31T14:01:33.852Z,98510.28
2022-12-31T14:04:27.871Z,98520.69
2022-12-31T14:07:11.163Z,98520.50
2022-12-31T14:09:38.186Z,98524.94
2022-12-31T14:12:22.256Z,98518.31
2022-12-31T14:15:03.763Z,98525.88
2022-12-31T14:17:56.137Z,98526.94
2022-12-31T14:20:58.057Z,98526.66
2022-12-31T14:23:49.293Z,98542.47
2022-12-31T14:26:31.869Z,98526.81
2022-12-31T14:29:30.881Z,98533.38
2022-12-31T14:32:11.707Z,98529.31
2022-12-31T14:35:27.587Z,98532.44
2022-12-31T14:38:44.194Z,98542.66
2022-12-31T14:42:18.509Z,98541.78
2022-12-31T14:45:28.224Z,98543.81
2022-12-31T14:48:29.232Z,98545.19
2022-12-31T14:51:01.757Z,98535.72
2022-12-31T14:53:29.334Z,98543.47
2022-12-31T14:56:00.873Z,98528.38
2022-12-31T14:58:35.844Z,98540.13
2022-12-31T15:01:22.073Z,98551.94
2022-12-31T15:03:50.427Z,98556.38
2022-12-31T15:06:23.122Z,98551.59
2022-12-31T15:09:08.244Z,98556.50
2022-12-31T15:12:11.040Z,98564.16
2022-12-31T15:15:36.890Z,98571.63
2022-12-31T15:18:32.329Z,98569.88
2022-12-31T15:21:36.439Z,98565.31
2022-12-31T15:24:24.658Z,98558.47
2022-12-31T15:26:55.762Z,98555.25
2022-12-31T15:29:41.882Z,98557.53
2022-12-31T15:32:22.281Z,98554.28
2022-12-31T15:35:02.341Z,98546.31
2022-12-31T15:37:36.352Z,98544.09
2022-12-31T15:40:24.822Z,98549.28
2022-12-31T15:43:04.370Z,98555.84
2022-12-31T15:45:38.796Z,98553.88
2022-12-31T15:48:18.083Z,98557.25
2022-12-31T15:50:46.343Z,98555.44
2022-12-31T15:53:32.557Z,98560.69
2022-12-31T15:56:01.770Z,98554.00
2022-12-31T15:58:35.583Z,98554.88
2022-12-31T16:01:18.991Z,98549.38
2022-12-31T16:04:05.628Z,98549.38
2022-12-31T16:06:36.928Z,98552.56
2022-12-31T16:09:07.505Z,98545.09
2022-12-31T16:11:38.497Z,98549.28
2022-12-31T16:14:06.482Z,98549.88
2022-12-31T16:16:34.050Z,98553.06
2022-12-31T16:19:01.111Z,98552.38
2022-12-31T16:21:35.109Z,98558.88
2022-12-31T16:24:18.952Z,98558.84
2022-12-31T16:26:52.363Z,98549.19
2022-12-31T16:29:22.609Z,98551.22
2022-12-31T16:31:52.983Z,98554.72
2022-12-31T16:34:26.508Z,98553.44
2022-12-31T16:37:03.527Z,98558.44
2022-12-31T16:39:32.760Z,98549.53
2022-12-31T16:42:14.169Z,98549.88
2022-12-31T16:44:41.494Z,98559.69
2022-12-31T16:47:16.672Z,98555.44
2022-12-31T16:49:46.593Z,98552.91
2022-12-31T16:52:32.740Z,98552.84
2022-12-31T16:54:59.882Z,98553.28
2022-12-31T16:57:30.141Z,98561.63
2022-12-31T17:00:06.227Z,98548.50
2022-12-31T17:02:47.313Z,98547.19
2022-12-31T17:05:26.150Z,98552.94
2022-12-31T17:07:53.555Z,98563.22
2022-12-31T17:10:33.736Z,98558.38
2022-12-31T17:13:27.052Z,98560.88
2022-12-31T17:15:51.052Z,98572.56
2022-12-31T17:18:24.247Z,98553.28
2022-12-31T17:20:53.456Z,98557.94
2022-12-31T17:23:26.982Z,98567.72
2022-12-31T17:26:11.290Z,98562.81
2022-12-31T17:28:51.759Z,98575.34
2022-12-31T17:31:43.070Z,98572.13
2022-12-31T17:34:12.738Z,98577.34
2022-12-31T17:37:15.911Z,98570.66
2022-12-31T17:39:54.539Z,98565.81
2022-12-31T17:42:30.841Z,98581.53
2022-12-31T17:45:06.616Z,98579.31
2022-12-31T17:47:39.520Z,98585.69
2022-12-31T17:50:19.790Z,98579.59
2022-12-31T17:52:46.859Z,98588.75
2022-12-31T17:55:13.834Z,98576.84
2022-12-31T17:57:52.516Z,98582.06
2022-12-31T18:00:25.917Z,98580.56
2022-12-31T18:02:52.691Z,98583.59
2022-12-31T18:05:22.609Z,98584.28
2022-12-31T18:07:50.071Z,98587.53
2022-12-31T18:10:19.180Z,98597.94
2022-12-31T18:12:47.690Z,98587.16
2022-12-31T18:15:17.329Z,98581.09
2022-12-31T18:17:44.447Z,98584.53
2022-12-31T18:20:12.086Z,98591.63
2022-12-31T18:22:40.685Z,98592.66
2022-12-31T18:25:10.045Z,98585.31
2022-12-31T18:27:36.756Z,98587.28
2022-12-31T18:30:05.122Z,98595.72
2022-12-31T18:32:33.212Z,98593.13
2022-12-31T18:34:59.828Z,98580.09
2022-12-31T18:37:29.074Z,98582.81
2022-12-31T18:39:55.822Z,98584.06
2022-12-31T18:42:26.064Z,98583.94
2022-12-31T18:44:53.732Z,98588.66
2022-12-31T18:47:24.411Z,98596.22
2022-12-31T18:49:51.222Z,98594.84
2022-12-31T18:52:23.160Z,98584.06
2022-12-31T18:54:49.762Z,98579.94
2022-12-31T18:57:16.539Z,98582.66
2022-12-31T18:59:43.254Z,98583.53
2022-12-31T19:02:18.675Z,98591.19
2022-12-31T19:04:46.103Z,98595.91
2022-12-31T19:07:12.980Z,98595.63
2022-12-31T19:09:48.328Z,98592.91
2022-12-31T19:12:16.776Z,98592.69
2022-12-31T19:14:43.502Z,98601.44
2022-12-31T19:19:35.741Z,98597.69
2022-12-31T19:22:02.699Z,98588.75
2022-12-31T19:24:29.421Z,98589.16
2022-12-31T19:26:56.061Z,98592.50
2022-12-31T19:29:25.747Z,98590.41
2022-12-31T19:31:52.530Z,98586.66
2022-12-31T19:34:19.131Z,98591.91
2022-12-31T19:36:45.850Z,98593.47
2022-12-31T19:39:19.261Z,98590.16
2022-12-31T19:41:51.407Z,98590.78
2022-12-31T19:44:19.780Z,98590.03
2022-12-31T19:46:47.225Z,98597.97
2022-12-31T19:49:14.847Z,98609.75
2022-12-31T19:51:42.189Z,98600.69
2022-12-31T19:54:12.083Z,98604.13
2022-12-31T19:56:38.807Z,98611.97
2022-12-31T19:59:07.079Z,98598.94
2022-12-31T20:01:33.954Z,98599.44
2022-12-31T20:04:00.785Z,98605.28
2022-12-31T20:06:27.422Z,98608.88
2022-12-31T20:08:55.105Z,98616.56
2022-12-31T20:11:23.726Z,98607.88
2022-12-31T20:13:54.527Z,98617.81
2022-12-31T20:16:26.464Z,98616.69
2022-12-31T20:18:53.161Z,98622.78
2022-12-31T20:21:23.787Z,98630.72
2022-12-31T20:23:52.853Z,98624.50
2022-12-31T20:26:22.021Z,98633.19
2022-12-31T20:28:48.844Z,98623.50
2022-12-31T20:31:19.447Z,98626.09
2022-12-31T20:33:46.369Z,98619.78
2022-12-31T20:36:15.321Z,98624.13
2022-12-31T20:38:42.346Z,98621.53
2022-12-31T20:41:18.742Z,98615.19
2022-12-31T20:43:46.401Z,98621.28
2022-12-31T20:46:25.415Z,98626.50
2022-12-31T20:48:56.201Z,98628.34
2022-12-31T20:51:24.542Z,98632.69
2022-12-31T20:53:58.178Z,98626.88
2022-12-31T20:56:28.008Z,98623.50
2022-12-31T20:58:54.901Z,98618.56
2022-12-31T21:01:21.812Z,98625.47
2022-12-31T21:04:06.391Z,98631.19
2022-12-31T21:06:35.451Z,98630.19
2022-12-31T21:09:05.054Z,98635.41
2022-12-31T21:11:50.471Z,98630.97
2022-12-31T21:14:17.071Z,98631.84
2022-12-31T21:16:43.718Z,98629.59
2022-12-31T21:19:10.409Z,98629.25
2022-12-31T21:21:37.264Z,98636.16
2022-12-31T21:24:04.301Z,98649.06
2022-12-31T21:26:31.038Z,98633.81
2022-12-31T21:28:57.922Z,98642.38
2022-12-31T21:31:24.619Z,98645.34
2022-12-31T21:33:51.241Z,98641.13
2022-12-31T21:36:17.946Z,98632.44
2022-12-31T21:38:44.730Z,98633.22
2022-12-31T21:41:33.455Z,98637.41
2022-12-31T21:44:01.960Z,98646.06
2022-12-31T21:46:29.205Z,98644.34
2022-12-31T21:48:58.259Z,98642.13
2022-12-31T21:51:26.161Z,98646.47
2022-12-31T21:53:52.988Z,98650.44
2022-12-31T21:56:21.195Z,98659.25
2022-12-31T21:59:15.882Z,98642.13
2022-12-31T22:02:01.533Z,98643.72
2022-12-31T22:05:00.853Z,98649.56
2022-12-31T22:07:15.725Z,98653.16
2022-12-31T22:09:42.336Z,98651.06
2022-12-31T22:12:08.990Z,98652.41
2022-12-31T22:14:35.639Z,98659.22
2022-12-31T22:17:02.222Z,98659.94
2022-12-31T22:19:28.800Z,98672.88
2022-12-31T22:21:55.359Z,98663.16
2022-12-31T22:24:21.931Z,98683.25
2022-12-31T22:26:48.542Z,98680.41
2022-12-31T22:29:15.155Z,98690.53
2022-12-31T22:31:41.818Z,98692.19
2022-12-31T22:34:08.665Z,98695.78
2022-12-31T22:36:35.253Z,98699.00
2022-12-31T22:39:01.904Z,98691.59
2022-12-31T22:41:28.836Z,98703.59
2022-12-31T22:44:03.700Z,98700.59
2022-12-31T22:46:32.524Z,98700.50
2022-12-31T22:49:01.052Z,98708.03
2022-12-31T22:51:56.078Z,98697.34
2022-12-31T22:54:17.504Z,98717.72
2022-12-31T22:56:44.233Z,98721.44
2022-12-31T22:59:10.931Z,98720.66
2022-12-31T23:01:37.904Z,98722.16
2022-12-31T23:04:05.131Z,98720.81
2022-12-31T23:06:32.263Z,98730.41
2022-12-31T23:09:17.299Z,98728.56
2022-12-31T23:11:44.168Z,98725.09
2022-12-31T23:14:35.691Z,98736.00
2022-12-31T23:17:31.077Z,98740.63
2022-12-31T23:20:18.843Z,98726.59
2022-12-31T23:23:05.331Z,98743.03
2022-12-31T23:25:33.475Z,98742.50
2022-12-31T23:28:00.686Z,98740.78
2022-12-31T23:30:27.339Z,98737.69
2022-12-31T23:32:54.119Z,98723.88
2022-12-31T23:35:20.841Z,98726.31
2022-12-31T23:37:50.168Z,98727.38
2022-12-31T23:40:21.654Z,98726.72
2022-12-31T23:42:49.886Z,98727.44
2022-12-31T23:45:16.569Z,98725.94
2022-12-31T23:47:43.273Z,98730.28
2022-12-31T23:50:10.080Z,98729.47
2022-12-31T23:52:36.797Z,98732.31
2022-12-31T23:55:03.856Z,98727.63
2022-12-31T23:57:30.545Z,98723.72
2022-12-31T23:59:57.204Z,98722.44
